Latest Weather Observations for Christmas Island

IDW60801

Issued at 11:04 am WST Tuesday 24 January 2017 (issued every 30 minutes, with the page automatically refreshed every 10 minutes)

About weather observations | Map of weather stations | Latest weather observations for WA | Other Formats
Station Details ID: 200790 Name: CHRISTMAS ISLAND AERO Lat: -10.45 Lon: 105.69 Height: 261.0 m
Data from the previous 72 hours. | See also: Recent months at Christmas Island
Date/Time
WST
Temp
°C
App
Temp
°C
Dew
Point
°C
Rel
Hum
%
Delta-T
°C
Wind Press
QNH
hPa
Press
MSL
hPa
Rain since
9am
mm
Dir  Spd
km/h
Gust
km/h
Spd
kts
Gust
kts
24/11:00am 26.3 30.5 25.3 94 0.7 WNW 13 24 7 13 1011.2 - 1.0
24/10:42am 26.2 29.9 24.6 91 1.1 W 13 24 7 13 1011.4 - 0.0
24/10:30am 26.6 30.8 24.7 89 1.3 WNW 11 19 6 10 1011.3 - 0.0
24/10:00am 26.1 29.3 24.4 90 1.2 W 15 24 8 13 1011.3 1009.7 6.0
24/09:30am 25.9 29.6 24.6 92 0.9 WNW 13 20 7 11 1011.4 - 6.0
24/09:00am 25.8 30.4 24.7 94 0.8 W 9 17 5 9 1010.9 - 6.0
24/08:30am 25.4 29.8 24.4 94 0.7 W 9 17 5 9 1010.6 - 6.0
24/08:00am 25.4 29.5 24.5 95 0.6 W 11 20 6 11 1010.2 - 6.0
24/07:30am 25.4 29.1 24.5 95 0.6 W 13 24 7 13 1009.9 - 6.0
24/07:00am 25.2 28.8 24.3 95 0.6 WNW 13 22 7 12 1009.4 1007.8 6.0
24/06:30am 25.1 28.7 24.4 96 0.5 WNW 13 20 7 11 1009.4 - 6.0
24/06:00am 25.3 29.0 24.6 96 0.5 W 13 22 7 12 1009.2 - 5.2
24/05:46am 25.2 28.9 24.5 96 0.5 WNW 13 24 7 13 1009.1 - 5.2
24/05:34am 25.1 28.6 24.2 95 0.6 W 13 24 7 13 1009.2 - 5.0
24/05:30am 25.3 29.4 24.6 96 0.5 WNW 11 24 6 13 1009.2 - 4.2
24/05:04am 25.1 28.2 24.2 95 0.6 WNW 15 26 8 14 1009.3 - 4.0
24/05:00am 25.1 28.2 24.2 95 0.6 WNW 15 24 8 13 1009.3 - 4.0
24/04:47am 25.0 28.4 24.1 95 0.6 WNW 13 22 7 12 1009.3 - 4.0
24/04:35am 24.9 28.7 24.0 95 0.6 W 11 20 6 11 1009.3 - 3.8
24/04:30am 25.0 29.3 24.3 96 0.5 WNW 9 19 5 10 1009.4 - 3.8
24/04:16am 25.3 28.9 24.3 94 0.7 WNW 13 22 7 12 1009.4 - 3.6
24/04:00am 25.3 28.9 24.3 94 0.7 WNW 13 24 7 13 1009.5 1007.9 3.4
24/03:30am 25.3 28.9 24.3 94 0.7 WNW 13 24 7 13 1009.7 - 3.4
24/03:00am 25.4 29.5 24.5 95 0.6 NW 11 20 6 11 1009.9 - 3.4
24/02:30am 25.5 29.9 24.5 94 0.7 WNW 9 19 5 10 1010.3 - 3.2
24/02:00am 25.4 29.8 24.4 94 0.7 WNW 9 17 5 9 1010.4 - 3.2
24/01:30am 25.4 29.4 24.4 94 0.7 WNW 11 20 6 11 1010.7 - 3.2
24/01:00am 25.4 29.8 24.4 94 0.7 WNW 9 17 5 9 1011.1 1009.5 3.2
24/12:30am 25.4 29.4 24.4 94 0.7 WNW 11 20 6 11 1011.5 - 3.2
24/12:01am 25.6 30.2 24.7 95 0.6 WNW 9 17 5 9 1011.9 - 3.2
24/12:00am 25.6 30.2 24.7 95 0.6 WNW 9 17 5 9 1011.9 - 3.2
 
Date/Time
WST
Temp
°C
App
Temp
°C
Dew
Point
°C
Rel
Hum
%
Delta-T
°C
Wind Press
QNH
hPa
Press
MSL
hPa
Rain since
9am
mm
Dir  Spd
km/h
Gust
km/h
Spd
kts
Gust
kts
23/11:50pm 25.7 29.6 24.8 95 0.6 NW 13 22 7 12 1011.9 - 3.2
23/11:30pm 25.7 29.8 24.6 94 0.8 NW 11 19 6 10 1011.8 - 2.6
23/11:00pm 25.6 29.5 24.2 92 1.0 NW 11 19 6 10 1011.8 - 2.6
23/10:30pm 25.6 29.2 24.3 92 0.9 NW 13 22 7 12 1011.7 - 2.6
23/10:00pm 25.5 29.5 24.4 94 0.8 WNW 11 19 6 10 1011.6 1010.0 2.6
23/09:44pm 25.4 28.8 24.1 92 0.9 WNW 13 24 7 13 1011.5 - 2.6
23/09:36pm 25.3 28.7 24.0 92 0.9 WNW 13 20 7 11 1011.5 - 2.6
23/09:30pm 25.4 29.2 24.1 92 0.9 WNW 11 20 6 11 1011.5 - 2.6
23/09:23pm 25.4 29.2 24.1 92 0.9 WNW 11 19 6 10 1011.4 - 2.6
23/09:00pm 25.3 28.7 24.0 92 0.9 WNW 13 26 7 14 1011.2 - 2.6
23/08:54pm 25.3 29.1 24.1 93 0.8 WNW 11 20 6 11 1011.1 - 2.4
23/08:30pm 25.4 29.8 24.4 94 0.7 WNW 9 17 5 9 1011.0 - 2.4
23/08:00pm 25.6 29.7 24.5 94 0.8 NW 11 22 6 12 1010.4 - 2.4
23/07:30pm 25.7 29.3 24.4 92 0.9 WNW 13 22 7 12 1010.0 - 1.6
23/07:00pm 26.0 29.7 24.6 92 1.0 WNW 13 24 7 13 1009.7 1008.1 1.4
23/06:30pm 25.9 29.2 24.5 92 1.0 WNW 15 28 8 15 1009.3 - 1.4
23/06:00pm 25.9 29.2 24.5 92 1.0 NW 15 26 8 14 1009.1 - 1.4
23/05:30pm 25.7 28.9 24.4 92 0.9 WNW 15 24 8 13 1009.0 - 1.4
23/05:00pm 26.3 30.3 24.4 89 1.3 WNW 11 20 6 11 1009.1 - 1.4
23/04:30pm 26.6 29.5 24.5 88 1.5 WNW 17 28 9 15 1009.2 - 1.4
23/04:00pm 26.6 29.8 24.3 87 1.6 WNW 15 26 8 14 1009.4 1007.8 1.4
23/03:56pm 26.5 29.7 24.4 88 1.5 NW 15 26 8 14 1009.4 - 1.4
23/03:30pm 26.8 29.7 24.4 87 1.7 NW 17 28 9 15 1010.0 - 1.4
23/03:13pm 27.4 30.4 24.7 85 1.9 WNW 17 30 9 16 1010.2 - 1.4
23/03:00pm 27.3 31.2 24.9 87 1.7 NW 13 22 7 12 1010.4 - 1.4
23/02:33pm 27.0 31.2 25.9 94 0.8 WNW 15 24 8 13 1010.8 - 1.4
23/02:30pm 26.9 30.4 24.9 89 1.4 WNW 15 26 8 14 1010.8 - 1.4
23/02:29pm 27.0 30.2 25.0 89 1.4 WNW 17 28 9 15 1010.8 - 1.4
23/02:20pm 26.2 29.7 24.8 92 1.0 NW 15 28 8 15 1010.9 - 1.4
23/02:00pm 26.3 29.5 24.9 92 1.0 NW 17 26 9 14 1011.1 - 1.0
23/01:58pm 26.4 29.5 24.8 91 1.1 NW 17 26 9 14 1011.2 - 0.8
23/01:46pm 26.9 30.1 24.9 89 1.4 NNW 17 32 9 17 1011.1 - 0.8
23/01:30pm 26.4 30.0 25.0 92 1.0 NW 15 24 8 13 1011.4 - 0.6
23/01:26pm 26.3 29.3 24.7 91 1.1 NW 17 26 9 14 1011.5 - 0.4
23/01:00pm 27.7 30.6 24.4 82 2.3 NNW 17 30 9 16 1011.4 1009.8 0.0
23/12:30pm 27.4 30.7 24.5 84 2.0 NW 15 26 8 14 1011.6 - 0.0
23/12:00pm 27.6 30.9 24.5 83 2.2 NW 15 26 8 14 1011.8 - 0.0
23/11:30am 26.9 30.4 24.2 85 1.9 NW 13 20 7 11 1012.2 - 0.0
23/11:00am 26.3 30.1 24.7 91 1.1 NW 13 20 7 11 1012.5 - 0.0
23/10:30am 26.4 29.9 24.2 88 1.5 NW 13 24 7 13 1012.5 - 0.0
23/10:00am 26.4 30.8 24.4 89 1.4 NW 9 17 5 9 1012.5 1010.8 18.6
23/09:30am 26.2 30.1 24.3 89 1.3 WNW 11 26 6 14 1012.5 - 18.6
23/09:00am 25.9 28.7 24.3 91 1.1 NW 17 28 9 15 1012.3 - 18.6
23/08:30am 25.5 28.2 24.2 92 0.9 WNW 17 28 9 15 1011.9 - 18.6
23/08:00am 25.5 28.9 24.1 92 1.0 NW 13 24 7 13 1011.5 - 18.6
23/07:30am 25.3 28.7 24.1 93 0.8 NW 13 20 7 11 1011.4 - 18.6
23/07:00am 25.2 28.3 24.2 94 0.7 NW 15 26 8 14 1011.2 1009.6 18.6
23/06:30am 24.9 28.2 23.9 94 0.7 NW 13 24 7 13 1011.2 - 18.6
23/06:26am 24.9 28.2 23.9 94 0.7 NW 13 24 7 13 1011.2 - 18.6
23/06:00am 25.1 27.9 23.6 91 1.0 NW 15 22 8 12 1011.3 - 18.6
23/05:33am 25.4 28.3 23.1 87 1.6 WNW 13 22 7 12 1011.1 - 18.6
23/05:30am 25.3 28.3 23.3 89 1.4 WNW 13 22 7 12 1011.1 - 18.6
23/05:04am 25.4 28.1 23.4 89 1.4 WNW 15 26 8 14 1011.1 - 18.6
23/05:00am 25.3 28.0 23.4 89 1.3 WNW 15 22 8 12 1011.0 - 18.6
23/04:30am 25.2 28.5 23.8 92 1.0 WNW 13 19 7 10 1011.1 - 18.6
23/04:00am 25.5 29.4 24.2 92 0.9 NW 11 20 6 11 1011.3 1009.7 18.6
23/03:30am 25.3 28.3 24.0 92 0.9 WNW 15 24 8 13 1011.3 - 18.6
23/03:00am 25.3 27.9 24.0 92 0.9 WNW 17 28 9 15 1011.4 - 18.6
23/02:30am 25.2 28.4 24.3 95 0.6 WNW 15 26 8 14 1011.6 - 18.6
23/02:00am 25.1 28.0 24.4 96 0.5 WNW 17 28 9 15 1011.8 - 18.4
23/01:52am 25.2 28.1 24.5 96 0.5 WNW 17 32 9 17 1011.9 - 18.4
23/01:30am 25.3 28.7 24.6 96 0.5 WNW 15 22 8 12 1012.2 - 17.0
23/01:00am 24.7 27.6 23.8 95 0.6 W 15 28 8 15 1012.5 1010.8 15.6
23/12:30am 24.8 27.9 23.5 92 0.9 WNW 13 30 7 16 1012.7 - 15.6
23/12:00am 25.7 29.1 24.6 94 0.8 WNW 15 26 8 14 1012.9 - 15.4
 
Date/Time
WST
Temp
°C
App
Temp
°C
Dew
Point
°C
Rel
Hum
%
Delta-T
°C
Wind Press
QNH
hPa
Press
MSL
hPa
Rain since
9am
mm
Dir  Spd
km/h
Gust
km/h
Spd
kts
Gust
kts
22/11:30pm 25.7 28.9 24.4 92 0.9 WNW 15 33 8 18 1013.2 - 15.4
22/11:00pm 25.7 29.4 24.6 94 0.8 WNW 13 22 7 12 1013.1 - 15.4
22/10:30pm 25.2 29.5 24.2 94 0.7 WNW 9 17 5 9 1013.1 - 15.4
22/10:01pm 24.1 27.4 22.6 91 1.0 WNW 9 15 5 8 1012.8 - 15.4
22/10:00pm 24.1 27.4 22.5 91 1.1 WNW 9 15 5 8 1012.8 1011.2 15.4
22/09:39pm 24.2 26.4 22.6 91 1.1 WNW 15 28 8 15 1012.7 - 15.4
22/09:30pm 24.6 26.7 23.1 91 1.0 WNW 17 33 9 18 1012.7 - 15.4
22/09:00pm 25.4 29.2 24.7 96 0.5 WNW 13 19 7 10 1012.6 - 15.2
22/08:30pm 24.7 28.1 24.1 96 0.4 WNW 13 20 7 11 1012.6 - 15.2
22/08:11pm 23.8 26.7 23.1 96 0.5 W 13 19 7 10 1012.4 - 15.2
22/08:10pm 23.8 26.5 22.9 95 0.6 W 13 19 7 10 1012.4 - 15.2
22/08:09pm 23.8 26.5 22.9 95 0.6 W 13 20 7 11 1012.4 - 15.2
22/08:00pm 23.6 26.7 22.9 96 0.5 WNW 11 20 6 11 1012.3 - 15.0
22/07:30pm 23.6 25.0 22.6 94 0.7 W 19 32 10 17 1012.2 - 6.2
22/07:27pm 23.5 24.9 22.5 94 0.7 W 19 32 10 17 1011.9 - 6.0
22/07:25pm 23.4 24.5 22.4 94 0.7 W 20 32 11 17 1011.9 - 5.6
22/07:07pm 24.5 26.8 23.5 94 0.7 W 17 39 9 21 1011.6 - 1.8
22/07:00pm 25.4 27.8 23.7 90 1.2 WSW 17 26 9 14 1011.2 1009.6 0.2
22/06:30pm 26.2 29.6 24.6 91 1.1 NW 15 24 8 13 1010.8 - 0.2
22/06:00pm 26.2 29.4 24.3 89 1.3 WNW 15 30 8 16 1010.5 - 0.2
22/05:30pm 26.1 29.0 24.4 90 1.2 WNW 17 28 9 15 1010.3 - 0.2
22/05:00pm 26.4 30.6 24.8 91 1.1 WNW 11 22 6 12 1010.1 - 0.2
22/04:34pm 27.0 29.7 24.1 84 2.0 WNW 17 32 9 17 1010.6 - 0.2
22/04:31pm 26.7 29.0 24.1 86 1.8 WNW 19 32 10 17 1010.7 - 0.2
22/04:30pm 26.7 28.9 24.0 85 1.9 WNW 19 32 10 17 1010.7 - 0.2
22/04:00pm 26.7 28.6 23.4 82 2.3 WNW 19 32 10 17 1010.8 1009.2 0.2
22/03:30pm 27.4 29.7 23.5 79 2.7 NW 17 37 9 20 1011.1 - 0.2
22/03:09pm 27.0 29.9 24.4 86 1.8 WNW 17 32 9 17 1011.3 - 0.2
22/03:00pm 27.2 30.1 23.9 82 2.3 WNW 15 26 8 14 1011.4 - 0.2
22/02:48pm 27.0 29.3 23.4 80 2.5 WNW 17 32 9 17 1011.4 - 0.2
22/02:30pm 26.9 29.1 24.0 84 2.0 WNW 19 33 10 18 1011.6 - 0.2
22/02:00pm 27.6 30.0 24.3 82 2.3 WNW 19 33 10 18 1011.7 - 0.2
22/01:46pm 27.9 30.4 24.5 82 2.4 NW 19 33 10 18 1011.9 - 0.2
22/01:30pm 26.6 29.0 24.2 87 1.7 WNW 19 33 10 18 1012.3 - 0.2
22/01:00pm 28.2 31.2 24.6 81 2.5 NW 17 32 9 17 1012.5 1010.8 0.2
22/12:30pm 27.0 30.9 24.9 88 1.5 NW 13 24 7 13 1012.9 - 0.2
22/12:00pm 27.4 29.9 24.5 84 2.0 WNW 19 32 10 17 1013.3 - 0.2
22/11:30am 27.0 29.6 24.6 87 1.7 NW 19 32 10 17 1013.4 - 0.2
22/11:00am 26.7 29.8 24.8 89 1.3 NW 17 28 9 15 1013.4 - 0.0
22/10:30am 26.1 29.3 24.4 90 1.2 NW 15 24 8 13 1013.8 - 0.0
22/10:00am 25.7 28.4 24.1 91 1.1 NW 17 30 9 16 1014.0 1012.4 12.0
22/09:30am 26.0 29.6 24.4 91 1.1 NW 13 20 7 11 1013.9 - 12.0
22/09:00am 25.8 29.4 24.4 92 1.0 NNW 13 28 7 15 1013.6 - 12.0
22/08:30am 25.6 28.8 24.3 92 0.9 NW 15 26 8 14 1013.3 - 12.0
22/08:00am 25.5 29.5 24.4 94 0.8 NW 11 20 6 11 1013.2 - 12.0
22/07:30am 25.4 28.5 24.1 92 0.9 NNW 15 26 8 14 1012.9 - 12.0
22/07:00am 25.2 28.7 24.2 94 0.7 NW 13 20 7 11 1012.6 1010.9 12.0
22/06:30am 25.2 28.7 24.2 94 0.7 NW 13 22 7 12 1012.5 - 12.0
22/06:04am 24.9 29.0 24.0 95 0.6 NW 9 20 5 11 1012.4 - 12.0
22/06:00am 24.7 28.7 23.8 95 0.6 NNW 9 15 5 8 1012.4 - 12.0
22/05:54am 24.5 28.4 23.6 95 0.6 NNW 9 17 5 9 1012.3 - 12.0
22/05:47am 24.3 26.9 23.3 94 0.7 N 15 26 8 14 1012.1 - 11.6
22/05:34am 24.6 27.8 23.7 95 0.6 NNW 13 22 7 12 1012.1 - 8.2
22/05:30am 24.6 28.6 23.7 95 0.6 N 9 15 5 8 1012.2 - 7.6
22/05:00am 25.0 29.0 23.8 93 0.8 NNW 9 22 5 12 1011.9 - 6.8
22/04:30am 25.4 29.8 24.5 95 0.6 NNW 9 17 5 9 1011.9 - 6.8
22/04:00am 25.1 29.2 23.9 93 0.8 NNW 9 15 5 8 1012.1 1010.4 6.8
22/03:59am 25.1 29.2 23.9 93 0.8 NNW 9 15 5 8 1012.1 - 6.8
22/03:30am 25.0 29.0 23.8 93 0.8 NW 9 13 5 7 1012.4 - 6.8
22/03:04am 25.0 29.2 24.1 95 0.6 WNW 9 15 5 8 1012.4 - 6.8
22/03:00am 25.0 29.6 24.1 95 0.6 NW 7 11 4 6 1012.5 - 6.8
22/02:30am 25.0 29.7 24.3 96 0.5 W 7 11 4 6 1012.9 - 6.8
22/02:09am 25.0 29.7 24.3 96 0.5 W 7 9 4 5 1012.8 - 6.8
22/02:00am 25.0 29.7 24.3 96 0.5 W 7 11 4 6 1013.0 - 6.8
22/01:30am 24.8 29.6 24.1 96 0.5 NW 6 9 3 5 1013.3 - 6.8
22/01:00am 24.6 29.1 24.0 96 0.4 WNW 7 13 4 7 1013.6 1012.0 6.8
22/12:59am 24.6 29.1 23.9 96 0.5 WNW 7 13 4 7 1013.6 - 6.8
22/12:32am 24.2 28.0 23.5 96 0.5 W 9 15 5 8 1013.6 - 6.8
22/12:30am 24.2 28.0 23.5 96 0.5 W 9 15 5 8 1013.7 - 6.8
22/12:00am 24.7 28.3 23.8 95 0.6 NW 11 19 6 10 1013.9 - 6.0
 
Date/Time
WST
Temp
°C
App
Temp
°C
Dew
Point
°C
Rel
Hum
%
Delta-T
°C
Wind Press
QNH
hPa
Press
MSL
hPa
Rain since
9am
mm
Dir  Spd
km/h
Gust
km/h
Spd
kts
Gust
kts
21/11:30pm 25.4 29.6 24.7 96 0.5 NNW 11 19 6 10 1013.9 - 6.0
21/11:21pm 25.4 29.6 24.7 96 0.5 NNW 11 17 6 9 1014.0 - 6.0
21/11:01pm 25.2 29.3 24.0 93 0.8 NW 9 17 5 9 1014.0 - 5.0
21/11:00pm 25.4 30.0 24.2 93 0.8 NW 7 17 4 9 1014.0 - 3.8
21/10:58pm 25.7 30.5 24.1 91 1.1 WNW 6 11 3 6 1013.9 - 1.8
21/10:30pm 25.5 30.1 24.1 92 1.0 NW 7 15 4 8 1013.6 - 1.8
21/10:11pm 25.5 30.1 24.1 92 1.0 NW 7 13 4 7 1013.5 - 1.8
21/10:00pm 25.4 29.9 24.0 92 1.0 W 7 13 4 7 1013.3 1011.7 1.8
21/09:45pm 25.4 29.4 23.8 91 1.1 W 9 13 5 7 1013.3 - 1.8
21/09:31pm 25.3 29.3 23.7 91 1.1 WNW 9 17 5 9 1013.1 - 1.8
21/09:30pm 25.3 29.3 23.7 91 1.1 WNW 9 17 5 9 1013.1 - 1.8
21/09:12pm 25.1 28.8 23.2 89 1.3 WNW 9 19 5 10 1013.0 - 1.8
21/09:00pm 25.1 28.0 23.1 89 1.4 WNW 13 17 7 9 1013.0 - 1.8
21/08:44pm 25.1 28.1 22.7 86 1.6 WNW 11 19 6 10 1012.7 - 1.8
21/08:30pm 25.1 28.5 24.1 94 0.7 WNW 13 20 7 11 1012.6 - 1.8
21/08:09pm 25.2 29.0 24.0 93 0.8 NW 11 19 6 10 1012.2 - 1.8
21/08:00pm 25.3 29.1 24.0 92 0.9 NW 11 19 6 10 1012.1 - 1.8
21/07:30pm 25.1 28.4 23.2 89 1.3 WNW 11 15 6 8 1011.5 - 1.8
21/07:00pm 25.2 28.3 22.9 87 1.6 WNW 11 19 6 10 1011.2 1009.6 1.8
21/06:30pm 25.0 27.7 22.2 84 1.9 W 11 19 6 10 1010.7 - 1.8
21/06:16pm 25.0 27.1 22.5 86 1.7 WNW 15 26 8 14 1010.7 - 1.8
21/06:00pm 25.1 27.5 22.9 87 1.5 WNW 15 24 8 13 1010.6 - 1.8
21/05:30pm 26.2 29.3 24.2 89 1.4 WNW 15 28 8 15 1010.4 - 1.8
21/05:00pm 26.1 29.4 23.8 87 1.6 WNW 13 26 7 14 1010.1 - 1.8
21/04:30pm 26.6 29.7 24.2 87 1.7 WNW 15 26 8 14 1010.4 - 1.8
21/04:00pm 25.6 29.5 24.3 92 0.9 WNW 11 20 6 11 1010.6 1009.0 1.8
21/03:56pm 25.6 29.5 24.3 92 0.9 WNW 11 20 6 11 1010.6 - 1.8
21/03:45pm 25.3 28.7 24.1 93 0.8 WNW 13 22 7 12 1010.6 - 1.8
21/03:44pm 25.5 29.0 24.2 92 0.9 WNW 13 22 7 12 1010.6 - 1.8
21/03:30pm 26.0 30.4 24.4 91 1.1 WNW 9 17 5 9 1010.8 - 1.4
21/03:00pm 27.1 29.7 23.9 82 2.2 WNW 17 26 9 14 1010.9 - 1.2
21/02:55pm 26.2 28.6 23.7 86 1.7 WNW 17 26 9 14 1010.9 - 1.2
21/02:46pm 25.8 28.9 23.6 88 1.5 WNW 13 20 7 11 1011.1 - 1.2
21/02:35pm 25.4 28.7 23.8 91 1.1 WNW 13 20 7 11 1011.4 - 1.2
21/02:30pm 25.4 28.8 24.0 92 1.0 WNW 13 19 7 10 1011.5 - 1.2
21/02:00pm 25.9 28.2 23.4 86 1.7 WNW 17 28 9 15 1011.5 - 1.2
21/01:30pm 27.4 30.1 24.1 82 2.3 WNW 17 26 9 14 1011.4 - 1.2
21/01:00pm 26.8 29.5 24.1 85 1.9 WNW 17 28 9 15 1011.9 1010.3 1.2
21/12:30pm 27.0 30.0 24.0 83 2.1 WNW 15 24 8 13 1012.2 - 1.2

Other Formats:

Comma delimited format used in spreadsheet applications
http://www.bom.gov.au/fwo/IDW60801/IDW60801.96995.axf

JavaScript Object Notation format (JSON) in row-major order
http://www.bom.gov.au/fwo/IDW60801/IDW60801.96995.json